| Time | Avg. Air Temp | Dew Point | Avg. Rel Humidity | Avg. 2 Min Wind Speed | Max Gust Velocity | MGV Time | MGV Direction | Avg. Spot Wind Velocity |
|---|---|---|---|---|---|---|---|---|
| 2026-09-06 06:00:00 | 3° C | -0° C | 79% | 8 km/h | 12 km/h | 05:59:00 | E | 8 km/h |
| 05:00:00 | 3° C | -0° C | 78% | 16 km/h | 21 km/h | 04:59:00 | SE | 13 km/h |
| 04:00:00 | 3° C | -0° C | 80% | 8 km/h | 14 km/h | 03:56:00 | SE | 9 km/h |
| 03:00:00 | 3° C | -0° C | 79% | 7 km/h | 19 km/h | 02:56:00 | SE | 10 km/h |
| 02:00:00 | 3° C | -0° C | 80% | 9 km/h | 15 km/h | 02:00:00 | SE | 9 km/h |
| 01:00:00 | 2° C | -0° C | 84% | 15 km/h | 21 km/h | 00:59:00 | SE | 16 km/h |
| 00:05:00 | 2° C | 1° C | 89% | 7 km/h | 8 km/h | 00:05:00 | 6 km/h | |
| 23:05:00 | 2° C | 0° C | 85% | 14 km/h | 15 km/h | 23:05:00 | SE | 14 km/h |
| 22:05:00 | 3° C | -0° C | 79% | 9 km/h | 13 km/h | 22:01:00 | SE | 8 km/h |
| 21:05:00 | 3° C | 1° C | 87% | 0 km/h | 1 km/h | 21:01:00 | S | 0 km/h |
| 20:05:00 | 3° C | 0° C | 83% | 2 km/h | 4 km/h | 20:02:00 | NE | 2 km/h |
| 19:05:00 | 3° C | 0° C | 84% | 13 km/h | 18 km/h | 19:05:00 | E | 11 km/h |
| 18:05:00 | 5° C | 1° C | 79% | 1 km/h | 3 km/h | 18:02:00 | NE | 1 km/h |
| 17:05:00 | 7° C | 2° C | 71% | 6 km/h | 11 km/h | 17:02:00 | SW | 6 km/h |
| 16:05:00 | 6° C | 2° C | 76% | 10 km/h | 16 km/h | 16:02:00 | SW | 10 km/h |
| 15:05:00 | 6° C | 1° C | 71% | 12 km/h | 16 km/h | 15:05:00 | S | 11 km/h |
| 14:05:00 | 5° C | 0° C | 74% | 20 km/h | 27 km/h | 14:04:00 | S | 14 km/h |
| 13:05:00 | 5° C | 4° C | 91% | 2 km/h | 7 km/h | 13:03:00 | S | 4 km/h |
| 12:05:00 | 4° C | 3° C | 93% | 3 km/h | 12 km/h | 12:02:00 | SW | 5 km/h |
| 11:05:00 | 4° C | 1° C | 80% | 3 km/h | 6 km/h | 11:02:00 | SW | 2 km/h |
| 10:05:00 | 3° C | 2° C | 96% | 1 km/h | 4 km/h | 10:01:00 | E | 0 km/h |
| 09:05:00 | 3° C | 0° C | 85% | 8 km/h | 18 km/h | 09:03:00 | SE | 7 km/h |
| 08:05:00 | 2° C | 1° C | 89% | 6 km/h | 17 km/h | 08:03:00 | SE | 8 km/h |
| 07:05:00 | 2° C | -1° C | 79% | 16 km/h | 22 km/h | 07:01:00 | SE | 15 km/h |
Subpeak Weather
| Time | Avg. Air Temp | Dew Point | Avg. Rel Humidity | Avg. 2 Min Wind Speed | Max Gust Velocity | MGV Time | MGV Direction | Avg. Spot Wind Velocity |
|---|---|---|---|---|---|---|---|---|
| 2026-09-06 06:00:00 | 3° C | -0° C | 79% | 8 km/h | 12 km/h | 05:59:00 | E | 8 km/h |
| 05:55:00 | 3° C | -1° C | 79% | 9 km/h | 12 km/h | 05:51:00 | E | 10 km/h |
| 05:50:00 | 2° C | -0° C | 84% | 10 km/h | 14 km/h | 05:47:00 | E | 10 km/h |
| 05:45:00 | 2° C | 0° C | 85% | 13 km/h | 15 km/h | 05:44:00 | E | 12 km/h |
| 05:40:00 | 3° C | 0° C | 82% | 10 km/h | 14 km/h | 05:36:00 | E | 10 km/h |
| 05:35:00 | 2° C | -0° C | 84% | 11 km/h | 15 km/h | 05:31:00 | E | 11 km/h |
| 05:30:00 | 2° C | -0° C | 84% | 12 km/h | 15 km/h | 05:30:00 | E | 11 km/h |
| 05:25:00 | 3° C | -0° C | 81% | 9 km/h | 12 km/h | 05:24:00 | NE | 8 km/h |
| 05:20:00 | 3° C | -0° C | 78% | 9 km/h | 17 km/h | 05:17:00 | E | 11 km/h |
| 05:15:00 | 3° C | -0° C | 78% | 8 km/h | 13 km/h | 05:12:00 | E | 10 km/h |
| 05:10:00 | 3° C | -0° C | 77% | 14 km/h | 18 km/h | 05:10:00 | SE | 14 km/h |
| 05:05:00 | 3° C | -0° C | 77% | 14 km/h | 20 km/h | 05:02:00 | SE | 13 km/h |
| 05:00:00 | 3° C | -0° C | 78% | 16 km/h | 21 km/h | 04:59:00 | SE | 13 km/h |




